Time;durP1;ratioP1;P1;durP2;ratioP2;P2;SDS_P1;SDS_P2;PMS_P1;PMS_P2;Temp;Humidity;BMP_temperature;BMP_pressure;BME280_temperature;BME280_humidity;BME280_pressure;Samples;Min_cycle;Max_cycle;Signal;HPM_P1;HPM_P2
2022/11/12 00:00:44;;;;;;;43.47;18.93;;;;;;;8.61;100.00;101280.13;4148064;28;20384;-74
2022/11/12 00:03:10;;;;;;;38.53;18.20;;;;;;;8.64;100.00;101274.63;4141453;28;20231;-73
2022/11/12 00:05:37;;;;;;;36.33;19.00;;;;;;;8.71;100.00;101281.16;4138519;28;20244;-73
2022/11/12 00:08:03;;;;;;;39.53;16.73;;;;;;;8.71;100.00;101278.50;4136539;28;20242;-72
2022/11/12 00:10:31;;;;;;;36.10;18.03;;;;;;;8.75;100.00;101279.97;4142184;28;20270;-71
2022/11/12 00:12:58;;;;;;;35.47;17.97;;;;;;;8.74;100.00;101274.78;4138652;28;20267;-73
2022/11/12 00:15:25;;;;;;;31.97;17.37;;;;;;;8.84;100.00;101281.94;4146923;28;20251;-72
2022/11/12 00:17:51;;;;;;;41.23;18.23;;;;;;;8.75;100.00;101281.78;4136727;29;20312;-68
2022/11/12 00:20:18;;;;;;;33.67;16.00;;;;;;;8.64;100.00;101285.22;4145935;28;20241;-70
2022/11/12 00:22:44;;;;;;;33.97;17.17;;;;;;;8.76;100.00;101284.31;4139189;28;20516;-71
2022/11/12 00:25:11;;;;;;;33.97;16.80;;;;;;;8.79;100.00;101289.41;4137564;28;20236;-71
2022/11/12 00:27:37;;;;;;;36.47;17.20;;;;;;;8.90;100.00;101291.28;4141179;28;20243;-71
2022/11/12 00:30:05;;;;;;;35.40;17.47;;;;;;;8.71;100.00;101286.47;4153560;28;20422;-69
2022/11/12 00:32:35;;;;;;;35.73;17.23;;;;;;;8.64;100.00;101285.22;4141876;28;20245;-71
2022/11/12 00:35:02;;;;;;;33.47;17.07;;;;;;;8.77;100.00;101285.16;4149669;28;20239;-72
2022/11/12 00:37:28;;;;;;;37.53;17.40;;;;;;;8.74;100.00;101288.88;4140082;28;20236;-72
2022/11/12 00:39:55;;;;;;;31.57;17.00;;;;;;;8.81;100.00;101282.19;4126518;28;20232;-71
2022/11/12 00:42:21;;;;;;;38.10;17.10;;;;;;;8.62;100.00;101285.31;4137130;28;20600;-72
2022/11/12 00:44:48;;;;;;;33.20;16.87;;;;;;;8.74;100.00;101280.09;4147637;28;25830;-73
2022/11/12 00:47:15;;;;;;;33.20;16.37;;;;;;;8.81;100.00;101290.13;4136952;28;20480;-70
2022/11/12 00:49:42;;;;;;;39.57;17.17;;;;;;;8.82;100.00;101291.81;4166267;28;20239;-71
2022/11/12 00:52:09;;;;;;;32.57;16.37;;;;;;;8.67;100.00;101287.66;4172396;28;20235;-73
2022/11/12 00:54:35;;;;;;;32.43;15.70;;;;;;;8.77;100.00;101283.34;4165454;28;20234;-72
2022/11/12 00:57:02;;;;;;;28.90;16.07;;;;;;;8.74;100.00;101280.94;4156293;28;21183;-71
2022/11/12 00:59:28;;;;;;;32.37;15.60;;;;;;;8.74;100.00;101274.78;4170695;28;20812;-71
2022/11/12 01:01:55;;;;;;;33.67;16.00;;;;;;;8.80;100.00;101276.97;4159399;28;20594;-72
2022/11/12 01:04:21;;;;;;;32.47;16.20;;;;;;;8.86;100.00;101274.72;4159356;28;20282;-72
2022/11/12 01:06:48;;;;;;;31.33;16.30;;;;;;;8.70;100.00;101279.44;4160573;28;20257;-71
2022/11/12 01:09:15;;;;;;;34.77;16.67;;;;;;;8.71;100.00;101273.22;4163656;28;22222;-73
2022/11/12 01:11:41;;;;;;;33.30;15.40;;;;;;;8.75;100.00;101272.00;4170192;28;20230;-71
2022/11/12 01:14:09;;;;;;;33.97;16.70;;;;;;;8.65;100.00;101273.63;4170966;28;20238;-71
2022/11/12 01:16:38;;;;;;;31.63;15.63;;;;;;;8.65;100.00;101265.69;4160458;28;22757;-72
2022/11/12 01:19:07;;;;;;;33.67;16.03;;;;;;;8.69;100.00;101261.84;4138285;28;20241;-72
2022/11/12 01:21:37;;;;;;;35.77;16.90;;;;;;;8.79;100.00;101267.31;4151235;28;25623;-71
2022/11/12 01:24:04;;;;;;;29.73;15.07;;;;;;;8.73;100.00;101262.47;4168259;28;20349;-72
2022/11/12 01:26:31;;;;;;;34.43;16.10;;;;;;;8.64;100.00;101269.31;4145998;28;20249;-72
2022/11/12 01:28:57;;;;;;;32.87;16.20;;;;;;;8.71;100.00;101262.59;4151493;28;20250;-72
2022/11/12 01:31:26;;;;;;;32.77;15.90;;;;;;;8.78;100.00;101260.31;4167395;28;20313;-71
2022/11/12 01:33:58;;;;;;;29.13;15.43;;;;;;;8.64;100.00;101264.00;4155612;28;26057;-72
2022/11/12 01:36:26;;;;;;;31.97;15.13;;;;;;;8.64;100.00;101264.84;4155845;28;20619;-71
2022/11/12 01:38:54;;;;;;;32.87;16.30;;;;;;;8.52;100.00;101264.88;4155729;28;20476;-72
2022/11/12 01:41:26;;;;;;;34.83;16.63;;;;;;;8.56;100.00;101266.34;4165490;28;20671;-71
2022/11/12 01:44:24;;;;;;;33.57;15.90;;;;;;;8.59;100.00;101271.44;4167945;28;20239;-71
2022/11/12 01:47:11;;;;;;;32.00;15.50;;;;;;;8.70;100.00;101273.31;4166688;28;21061;-72
2022/11/12 01:49:42;;;;;;;36.23;15.10;;;;;;;8.82;100.00;101275.91;4168159;29;20234;-70
2022/11/12 01:52:24;;;;;;;33.83;14.77;;;;;;;8.84;100.00;101278.44;4156233;28;20347;-72
2022/11/12 01:54:54;;;;;;;31.53;15.50;;;;;;;8.74;100.00;101274.78;4171221;28;20412;-72
2022/11/12 01:57:30;;;;;;;30.37;14.40;;;;;;;8.81;100.00;101279.53;4146344;28;20231;-71
2022/11/12 02:00:06;;;;;;;33.47;14.53;;;;;;;8.74;100.00;101286.25;4153594;29;20245;-73
2022/11/12 02:02:34;;;;;;;30.20;15.10;;;;;;;8.59;100.00;101274.06;4158319;28;20231;-72
2022/11/12 02:05:02;;;;;;;32.53;15.57;;;;;;;8.71;100.00;101278.50;4161673;28;20361;-71
2022/11/12 02:07:29;;;;;;;39.63;16.20;;;;;;;8.63;100.00;101288.81;4160290;28;21195;-72
2022/11/12 02:09:57;;;;;;;36.80;17.00;;;;;;;8.62;100.00;101280.03;4166075;28;23872;-72
2022/11/12 02:15:09;;;;;;;36.93;16.67;;;;;;;8.71;100.00;101281.16;4160417;28;20242;-72
2022/11/12 02:17:35;;;;;;;36.87;16.40;;;;;;;8.69;100.00;101274.28;4162835;28;20238;-71
2022/11/12 02:20:02;;;;;;;33.33;16.80;;;;;;;8.66;100.00;101278.84;4162153;28;20246;-72
2022/11/12 02:22:29;;;;;;;33.80;17.10;;;;;;;8.70;100.00;101274.16;4167363;28;20564;-70
2022/11/12 02:24:55;;;;;;;37.23;16.73;;;;;;;8.61;100.00;101266.84;4169415;28;20238;-72
2022/11/12 02:27:22;;;;;;;34.60;16.37;;;;;;;8.69;100.00;101274.28;4178635;28;20293;-71
2022/11/12 02:29:49;;;;;;;33.73;16.73;;;;;;;8.67;100.00;101274.38;4151218;28;20264;-72
2022/11/12 02:32:15;;;;;;;34.67;18.10;;;;;;;8.73;100.00;101273.91;4161872;28;22912;-71
2022/11/12 02:34:42;;;;;;;36.13;17.23;;;;;;;8.80;100.00;101277.84;4167197;28;20473;-72
2022/11/12 02:37:09;;;;;;;38.40;18.13;;;;;;;8.75;100.00;101277.31;4166821;28;20536;-71
2022/11/12 02:39:35;;;;;;;36.60;17.60;;;;;;;8.73;100.00;101273.91;4178985;28;20297;-73
2022/11/12 02:42:02;;;;;;;38.17;18.03;;;;;;;8.60;100.00;101275.78;4167459;28;20424;-71
2022/11/12 02:44:29;;;;;;;35.13;17.43;;;;;;;8.57;100.00;101278.63;4176027;28;20357;-72
2022/11/12 02:46:56;;;;;;;34.20;17.60;;;;;;;8.60;100.00;101279.28;4155335;28;20226;-72
2022/11/12 02:49:23;;;;;;;34.70;17.10;;;;;;;8.56;100.00;101276.97;4161977;28;20373;-71
2022/11/12 02:51:49;;;;;;;41.13;18.03;;;;;;;8.50;100.00;101277.41;4169485;28;22087;-70
2022/11/12 02:54:16;;;;;;;43.57;18.73;;;;;;;8.52;100.00;101281.66;4170473;28;20246;-72
2022/11/12 02:56:42;;;;;;;33.30;17.57;;;;;;;8.56;100.00;101283.09;4161408;28;20362;-71
2022/11/12 02:59:09;;;;;;;42.77;18.77;;;;;;;8.52;100.00;101281.66;4182396;28;20424;-72
2022/11/12 03:01:35;;;;;;;33.80;18.13;;;;;;;8.42;100.00;101277.94;4157035;28;20249;-71
2022/11/12 03:04:02;;;;;;;40.83;19.33;;;;;;;8.37;100.00;101283.56;4158400;28;22501;-71
2022/11/12 03:06:29;;;;;;;36.57;18.13;;;;;;;8.38;100.00;101281.75;4165786;28;20444;-70
2022/11/12 03:08:55;;;;;;;40.40;19.03;;;;;;;8.31;100.00;101289.31;4168091;28;20241;-73
2022/11/12 03:11:22;;;;;;;35.33;18.13;;;;;;;8.36;100.00;101291.63;4161359;28;22221;-71
2022/11/12 03:13:49;;;;;;;41.17;18.57;;;;;;;8.41;100.00;101286.88;4163773;28;20238;-72
2022/11/12 03:16:15;;;;;;;39.53;17.37;;;;;;;8.37;100.00;101288.84;4156482;28;25927;-72
2022/11/12 03:18:42;;;;;;;34.67;17.67;;;;;;;8.30;100.00;101295.56;4158135;28;20250;-71
2022/11/12 03:21:08;;;;;;;34.77;18.17;;;;;;;8.38;100.00;101295.88;4155290;28;20237;-71
2022/11/12 03:23:35;;;;;;;44.80;17.70;;;;;;;8.34;100.00;101294.38;4172037;28;20302;-73
2022/11/12 03:26:02;;;;;;;36.33;18.10;;;;;;;8.35;100.00;101298.72;4177696;28;20254;-72
2022/11/12 03:28:29;;;;;;;34.50;18.13;;;;;;;8.31;100.00;101297.28;4180646;28;20791;-71
2022/11/12 03:30:59;;;;;;;38.73;18.23;;;;;;;8.42;100.00;101294.72;4164120;28;20250;-71
2022/11/12 03:33:26;;;;;;;34.27;17.77;;;;;;;8.38;100.00;101300.31;4182125;28;20297;-72
2022/11/12 03:35:53;;;;;;;37.63;16.70;;;;;;;8.39;100.00;101294.91;4159407;28;20240;-71
2022/11/12 03:38:20;;;;;;;37.33;16.80;;;;;;;8.38;100.00;101295.00;4167600;28;20451;-71
2022/11/12 03:40:47;;;;;;;35.80;16.70;;;;;;;8.41;100.00;101300.97;4163965;28;20238;-72
2022/11/12 03:43:14;;;;;;;34.97;15.60;;;;;;;8.36;100.00;101308.41;4164040;28;20245;-70
2022/11/12 03:45:40;;;;;;;36.40;16.03;;;;;;;8.47;100.00;101299.69;4170177;28;20467;-73
2022/11/12 03:48:07;;;;;;;34.03;16.77;;;;;;;8.45;100.00;101301.59;4185728;28;20285;-69
2022/11/12 03:50:34;;;;;;;40.67;17.90;;;;;;;8.41;100.00;101305.44;4180824;28;21718;-70
2022/11/12 03:53:01;;;;;;;33.97;16.87;;;;;;;8.33;100.00;101305.94;4164876;28;20230;-70
2022/11/12 03:55:29;;;;;;;33.97;17.23;;;;;;;8.34;100.00;101298.84;4171685;28;20312;-69
2022/11/12 03:57:56;;;;;;;36.00;16.23;;;;;;;8.33;100.00;101290.03;4171766;28;20239;-70
2022/11/12 04:00:25;;;;;;;34.13;15.83;;;;;;;8.36;100.00;101300.44;4164082;28;20317;-69
2022/11/12 04:02:52;;;;;;;35.53;16.00;;;;;;;8.40;100.00;101299.28;4180255;28;20243;-72
2022/11/12 04:10:53;;;;;;;33.20;14.93;;;;;;;8.36;100.00;101292.47;4163356;28;22066;-70
2022/11/12 04:13:28;;;;;;;31.40;14.17;;;;;;;8.28;100.00;101286.84;4177927;28;20313;-69
2022/11/12 04:21:50;;;;;;;32.93;14.43;;;;;;;8.33;100.00;101292.69;4175620;28;20273;-70
2022/11/12 04:27:07;;;;;;;31.57;13.90;;;;;;;8.31;100.00;101288.44;4169882;28;20238;-70
2022/11/12 04:32:19;;;;;;;34.13;16.90;;;;;;;8.16;100.00;101291.22;4176271;28;20231;-70
2022/11/12 04:34:46;;;;;;;33.37;16.10;;;;;;;8.21;100.00;101293.56;4173970;28;20234;-72
2022/11/12 04:37:12;;;;;;;29.90;14.50;;;;;;;8.34;100.00;101289.09;4178151;28;20240;-70
2022/11/12 04:39:39;;;;;;;32.53;16.70;;;;;;;8.26;100.00;101286.13;4181049;28;23541;-70
2022/11/12 04:47:22;;;;;;;38.33;19.23;;;;;;;8.07;100.00;101280.44;4171650;28;20271;-71
2022/11/12 04:49:49;;;;;;;34.87;17.93;;;;;;;8.02;100.00;101278.94;4171083;29;21158;-70
2022/11/12 04:52:16;;;;;;;42.43;18.17;;;;;;;7.92;100.00;101285.84;4174814;28;20242;-70
2022/11/12 04:54:42;;;;;;;45.97;18.67;;;;;;;7.75;100.00;101278.22;4143628;29;21069;-72
2022/11/12 04:57:09;;;;;;;39.33;18.17;;;;;;;7.68;100.00;101283.09;4174781;28;21017;-71
2022/11/12 04:59:35;;;;;;;38.87;18.33;;;;;;;7.65;100.00;101279.81;4164432;28;20370;-70
2022/11/12 05:02:02;;;;;;;44.10;20.27;;;;;;;7.52;100.00;101280.66;4173422;28;20231;-69
2022/11/12 05:04:28;;;;;;;42.40;19.03;;;;;;;7.52;100.00;101287.75;4170175;28;20314;-70
2022/11/12 05:06:56;;;;;;;46.27;19.40;;;;;;;7.44;100.00;101285.59;4168705;28;21568;-71
2022/11/12 05:09:28;;;;;;;41.60;19.70;;;;;;;7.54;100.00;101283.22;4169308;28;22841;-71
2022/11/12 05:11:55;;;;;;;46.83;20.60;;;;;;;7.42;100.00;101284.84;4192101;28;25146;-71
2022/11/12 05:14:23;;;;;;;45.13;20.10;;;;;;;7.43;100.00;101285.72;4174947;28;21675;-71
2022/11/12 05:16:50;;;;;;;40.70;19.30;;;;;;;7.47;100.00;101280.13;4168744;28;20239;-71
2022/11/12 05:19:17;;;;;;;50.10;21.30;;;;;;;7.45;100.00;101289.97;4157833;28;20230;-71
2022/11/12 05:24:29;;;;;;;42.60;20.00;;;;;;;7.45;100.00;101286.47;4174160;28;21273;-72
2022/11/12 05:27:13;;;;;;;42.00;20.27;;;;;;;7.39;100.00;101290.38;4170566;28;20311;-70
2022/11/12 05:29:39;;;;;;;42.23;19.77;;;;;;;7.41;100.00;101283.19;4170640;28;20247;-70
2022/11/12 05:32:07;;;;;;;40.77;20.17;;;;;;;7.35;100.00;101288.88;4171045;28;20363;-70
2022/11/12 05:34:33;;;;;;;43.73;20.70;;;;;;;7.37;100.00;101294.91;4154540;28;20235;-70
2022/11/12 05:37:01;;;;;;;45.77;21.67;;;;;;;7.45;100.00;101297.91;4164263;28;22633;-71
2022/11/12 05:39:28;;;;;;;40.10;20.50;;;;;;;7.33;100.00;101296.94;4164730;28;20302;-72
2022/11/12 05:41:55;;;;;;;45.23;22.20;;;;;;;7.36;100.00;101301.19;4171592;28;20236;-70
2022/11/12 05:44:38;;;;;;;45.13;21.87;;;;;;;7.34;100.00;101314.50;4181528;28;20254;-72
2022/11/12 05:47:04;;;;;;;48.73;23.23;;;;;;;7.29;100.00;101305.19;4170316;28;21584;-71
2022/11/12 05:49:31;;;;;;;43.30;21.90;;;;;;;7.35;100.00;101299.47;4162234;28;20660;-70
2022/11/12 05:51:57;;;;;;;48.77;22.63;;;;;;;7.21;100.00;101302.19;4166017;28;20250;-69
2022/11/12 05:54:24;;;;;;;45.90;23.03;;;;;;;7.26;100.00;101313.31;4161758;28;20234;-68
2022/11/12 05:56:52;;;;;;;48.70;21.80;;;;;;;7.24;100.00;101313.44;4162246;28;21496;-71
2022/11/12 05:59:18;;;;;;;50.77;21.93;;;;;;;7.15;100.00;101314.03;4171046;28;20333;-69
2022/11/12 06:01:45;;;;;;;45.97;23.10;;;;;;;7.25;100.00;101314.28;4165174;28;24988;-72
2022/11/12 06:04:13;;;;;;;47.17;21.83;;;;;;;7.19;100.00;101326.97;4160646;28;20563;-70
2022/11/12 06:06:40;;;;;;;47.73;23.03;;;;;;;7.20;100.00;101327.81;4156579;29;20657;-70
2022/11/12 06:09:07;;;;;;;44.37;22.13;;;;;;;7.14;100.00;101323.78;4164205;28;20614;-71
2022/11/12 06:11:34;;;;;;;47.90;22.07;;;;;;;7.16;100.00;101332.47;4168208;28;20248;-70
2022/11/12 06:14:01;;;;;;;51.27;25.07;;;;;;;7.12;100.00;101327.50;4167609;28;20227;-71
2022/11/12 06:16:28;;;;;;;53.20;25.53;;;;;;;7.08;100.00;101324.19;4172652;28;21903;-72
2022/11/12 06:18:55;;;;;;;54.93;25.00;;;;;;;7.09;100.00;101325.88;4160382;28;20258;-71
2022/11/12 06:21:22;;;;;;;48.40;25.50;;;;;;;7.07;100.00;101332.22;4160828;28;20238;-72
2022/11/12 06:23:59;;;;;;;57.37;27.37;;;;;;;7.06;100.00;101331.38;4170964;28;20600;-72
2022/11/12 06:26:28;;;;;;;54.83;26.83;;;;;;;7.01;100.00;101333.47;4160291;28;25934;-70
2022/11/12 06:28:55;;;;;;;53.53;27.70;;;;;;;6.88;100.00;101337.84;4163236;28;21124;-70
2022/11/12 06:31:21;;;;;;;55.93;27.07;;;;;;;6.90;100.00;101335.97;4168932;28;20261;-72
2022/11/12 06:33:48;;;;;;;60.17;27.97;;;;;;;6.86;100.00;101330.03;4162134;28;25599;-71
2022/11/12 06:36:17;;;;;;;60.30;28.17;;;;;;;6.85;100.00;101335.41;4177121;28;22402;-72
2022/11/12 06:38:44;;;;;;;60.20;27.73;;;;;;;6.87;100.00;101337.00;4171709;28;20238;-67
2022/11/12 06:41:11;;;;;;;58.93;28.03;;;;;;;6.95;100.00;101339.16;4179279;28;20924;-66
2022/11/12 06:43:39;;;;;;;53.43;25.27;;;;;;;6.96;100.00;101335.56;4164219;28;22692;-67
2022/11/12 06:46:11;;;;;;;55.13;26.87;;;;;;;6.85;100.00;101338.06;4227559;28;21314;-67
2022/11/12 06:48:38;;;;;;;58.37;26.80;;;;;;;6.82;100.00;101338.25;4173962;28;20349;-68
2022/11/12 06:51:07;;;;;;;53.20;26.20;;;;;;;6.84;100.00;101350.44;4153065;28;22619;-72
2022/11/12 06:53:33;;;;;;;61.30;26.57;;;;;;;6.75;100.00;101348.38;4164156;28;20423;-74
2022/11/12 06:56:03;;;;;;;66.30;26.37;;;;;;;6.75;100.00;101343.94;4137474;28;25853;-73
2022/11/12 06:58:29;;;;;;;52.47;23.97;;;;;;;6.82;100.00;101339.09;4121389;28;20971;-73
2022/11/12 07:00:56;;;;;;;56.10;26.10;;;;;;;6.87;100.00;101350.22;4149283;28;20609;-73
2022/11/12 07:03:23;;;;;;;54.70;25.53;;;;;;;6.93;100.00;101352.50;4160126;28;20416;-73
2022/11/12 07:05:49;;;;;;;63.53;25.30;;;;;;;6.88;100.00;101357.25;4148781;28;21247;-72
2022/11/12 07:08:16;;;;;;;58.20;28.03;;;;;;;6.75;100.00;101354.50;4162663;28;20242;-70
2022/11/12 07:10:43;;;;;;;57.27;27.80;;;;;;;6.84;100.00;101361.03;4157477;28;20730;-72
2022/11/12 07:13:09;;;;;;;56.47;27.27;;;;;;;6.85;100.00;101353.94;4177307;28;20367;-73
2022/11/12 07:15:36;;;;;;;63.90;27.83;;;;;;;6.82;100.00;101368.22;4165249;28;20373;-71
2022/11/12 07:18:03;;;;;;;64.40;28.80;;;;;;;6.76;100.00;101366.78;4178265;28;20238;-71
2022/11/12 07:20:29;;;;;;;66.30;28.87;;;;;;;6.89;100.00;101368.66;4256184;28;20324;-72
2022/11/12 07:22:59;;;;;;;64.43;29.67;;;;;;;6.88;100.00;101369.59;4176692;29;20307;-71
2022/11/12 07:25:25;;;;;;;60.57;29.73;;;;;;;6.92;100.00;101363.16;4200812;28;20416;-68
2022/11/12 07:27:53;;;;;;;64.77;28.90;;;;;;;6.89;100.00;101366.03;4185160;28;20236;-70
2022/11/12 07:30:20;;;;;;;71.57;31.60;;;;;;;6.86;100.00;101367.06;4130791;29;20246;-70
2022/11/12 07:32:47;;;;;;;64.93;30.57;;;;;;;6.95;100.00;101360.31;4183442;28;20227;-69
2022/11/12 07:35:17;;;;;;;66.47;31.07;;;;;;;7.05;100.00;101366.72;4161641;28;20413;-70
2022/11/12 07:37:43;;;;;;;73.27;33.03;;;;;;;6.93;100.00;101364.84;4153845;28;20308;-69
2022/11/12 07:40:11;;;;;;;68.07;31.93;;;;;;;7.05;100.00;101366.72;4162458;28;20255;-67
2022/11/12 07:42:37;;;;;;;71.40;31.87;;;;;;;6.95;100.00;101373.53;4157984;28;21255;-72
2022/11/12 07:45:04;;;;;;;72.60;32.33;;;;;;;6.98;100.00;101371.56;4140361;28;22854;-70
2022/11/12 07:47:31;;;;;;;76.63;32.63;;;;;;;6.90;100.00;101375.66;4134790;28;22507;-71
2022/11/12 07:49:57;;;;;;;70.07;31.50;;;;;;;7.12;100.00;101373.31;4139972;28;20314;-66
2022/11/12 07:52:24;;;;;;;65.47;31.03;;;;;;;7.11;100.00;101371.59;4149948;28;20319;-69
2022/11/12 07:54:50;;;;;;;71.47;33.10;;;;;;;7.22;100.00;101370.94;4147212;28;20239;-74
2022/11/12 07:57:17;;;;;;;64.07;30.90;;;;;;;7.24;100.00;101370.84;4155565;28;22652;-71
2022/11/12 07:59:43;;;;;;;66.43;31.60;;;;;;;7.06;100.00;101368.41;4174428;28;20238;-69
2022/11/12 08:02:12;;;;;;;70.00;32.00;;;;;;;7.07;100.00;101372.78;4160716;28;20318;-71
2022/11/12 08:04:38;;;;;;;61.30;30.80;;;;;;;7.08;100.00;101366.53;4161045;28;20307;-73
2022/11/12 08:07:05;;;;;;;65.93;31.17;;;;;;;7.11;100.00;101371.59;4169207;28;20376;-75
2022/11/12 08:09:32;;;;;;;70.50;31.97;;;;;;;7.22;100.00;101367.44;4173513;28;20483;-70
2022/11/12 08:11:58;;;;;;;69.97;32.37;;;;;;;7.14;100.00;101366.13;4154047;28;21744;-69
2022/11/12 08:14:25;;;;;;;66.67;33.07;;;;;;;7.11;100.00;101368.97;4160754;28;20478;-72
2022/11/12 08:16:52;;;;;;;62.17;31.73;;;;;;;7.16;100.00;101374.84;4182935;28;21145;-72
2022/11/12 08:19:19;;;;;;;72.77;30.93;;;;;;;7.21;100.00;101371.00;4168496;28;21182;-72
2022/11/12 08:21:45;;;;;;;66.07;33.43;;;;;;;7.23;100.00;101366.47;4185244;28;20232;-67
2022/11/12 08:24:12;;;;;;;71.80;31.77;;;;;;;7.08;100.00;101371.81;4178997;28;21246;-72
2022/11/12 08:26:38;;;;;;;72.83;32.47;;;;;;;7.16;100.00;101380.13;4170938;28;20343;-73
2022/11/12 08:29:05;;;;;;;60.97;31.37;;;;;;;7.29;100.00;101377.50;4161883;28;20251;-71
2022/11/12 08:31:34;;;;;;;71.77;32.03;;;;;;;7.28;100.00;101382.91;4173255;28;20320;-70
2022/11/12 08:34:10;;;;;;;66.20;32.43;;;;;;;7.27;100.00;101381.22;4168410;28;20250;-71
2022/11/12 08:36:39;;;;;;;65.27;31.83;;;;;;;7.26;100.00;101379.50;4150696;28;21968;-73
2022/11/12 08:39:06;;;;;;;67.20;31.13;;;;;;;7.28;100.00;101382.91;4167583;28;21365;-69
2022/11/12 08:41:33;;;;;;;68.33;31.00;;;;;;;7.34;100.00;101386.00;4158805;28;22033;-71
2022/11/12 08:44:00;;;;;;;68.57;32.67;;;;;;;7.33;100.00;101386.13;4157224;28;20335;-72
2022/11/12 08:46:33;;;;;;;75.80;31.67;;;;;;;7.32;100.00;101392.34;4157111;28;20820;-67
2022/11/12 08:49:00;;;;;;;71.47;32.23;;;;;;;7.36;100.00;101392.03;4160040;28;20596;-71
2022/11/12 08:51:29;;;;;;;66.40;31.77;;;;;;;7.42;100.00;101390.78;4157787;28;20243;-69
2022/11/12 08:53:55;;;;;;;75.23;32.87;;;;;;;7.40;100.00;101393.56;4164584;28;20628;-71
2022/11/12 08:56:22;;;;;;;66.73;31.53;;;;;;;7.47;100.00;101399.31;4153964;28;21979;-69
2022/11/12 08:58:49;;;;;;;70.97;31.50;;;;;;;7.37;100.00;101395.53;4155498;28;20239;-70
2022/11/12 09:01:15;;;;;;;71.67;33.20;;;;;;;7.34;100.00;101393.09;4154583;28;20235;-70
2022/11/12 09:03:42;;;;;;;63.83;31.43;;;;;;;7.43;100.00;101400.44;4155736;28;20267;-72
2022/11/12 09:06:09;;;;;;;74.67;32.87;;;;;;;7.50;100.00;101404.38;4146771;28;20333;-68
2022/11/12 09:08:36;;;;;;;72.90;31.53;;;;;;;7.44;100.00;101402.13;4163905;28;23572;-69
2022/11/12 09:11:03;;;;;;;64.03;31.20;;;;;;;7.53;100.00;101404.16;4165753;28;21866;-71
2022/11/12 09:13:30;;;;;;;64.20;33.63;;;;;;;7.59;100.00;101408.22;4165656;28;20255;-66
2022/11/12 09:16:02;;;;;;;70.97;32.60;;;;;;;7.69;100.00;101411.94;4151693;28;23110;-67
2022/11/12 09:18:29;;;;;;;68.57;32.67;;;;;;;7.64;100.00;101414.06;4171970;28;20396;-69
2022/11/12 09:21:01;;;;;;;74.13;33.17;;;;;;;7.51;100.00;101413.16;4161107;28;22433;-67
2022/11/12 09:23:28;;;;;;;66.90;31.10;;;;;;;7.50;100.00;101417.63;4161476;28;20657;-70
2022/11/12 09:25:56;;;;;;;73.87;33.83;;;;;;;7.50;100.00;101417.63;4159629;28;20237;-68
2022/11/12 09:28:23;;;;;;;65.53;33.07;;;;;;;7.59;100.00;101417.03;4175686;28;20340;-67
2022/11/12 09:30:51;;;;;;;66.20;33.83;;;;;;;7.63;100.00;101408.84;4146639;28;20603;-67
2022/11/12 09:33:26;;;;;;;69.10;33.67;;;;;;;7.55;100.00;101407.56;4147603;28;21585;-70
2022/11/12 09:35:54;;;;;;;69.67;33.03;;;;;;;7.72;100.00;101410.91;4168521;28;22299;-69
2022/11/12 09:38:21;;;;;;;66.57;33.30;;;;;;;7.81;100.00;101410.28;4166453;28;20315;-73
2022/11/12 09:40:50;;;;;;;68.00;33.93;;;;;;;7.80;100.00;101417.41;4187760;28;20587;-68
2022/11/12 09:43:19;;;;;;;62.67;32.83;;;;;;;7.86;100.00;101408.16;4161788;28;20231;-68
2022/11/12 09:45:46;;;;;;;64.90;32.23;;;;;;;7.82;100.00;101412.84;4153946;28;20309;-67
2022/11/12 09:48:39;;;;;;;59.17;31.63;;;;;;;7.78;100.00;101407.84;4145104;28;20249;-69
2022/11/12 09:51:15;;;;;;;66.80;31.53;;;;;;;7.76;100.00;101412.41;4146507;28;20247;-66
2022/11/12 09:53:56;;;;;;;56.43;31.53;;;;;;;7.74;100.00;101411.66;4157393;28;22045;-66
2022/11/12 09:56:25;;;;;;;62.27;32.70;;;;;;;7.80;100.00;101422.69;4152592;28;20365;-69
2022/11/12 09:58:51;;;;;;;58.20;30.53;;;;;;;7.87;100.00;101415.19;4151142;28;21774;-68
2022/11/12 10:02:03;;;;;;;60.97;32.97;;;;;;;7.72;100.00;101408.25;4173298;28;20243;-68
2022/11/12 10:04:54;;;;;;;66.67;31.40;;;;;;;7.71;100.00;101410.06;4170405;28;22383;-68
2022/11/12 10:07:42;;;;;;;64.37;33.30;;;;;;;7.62;100.00;101418.63;4161008;28;20240;-67
2022/11/12 10:10:11;;;;;;;65.00;34.33;;;;;;;7.71;100.00;101418.00;4152542;28;20331;-68
2022/11/12 10:12:49;;;;;;;64.63;32.80;;;;;;;7.78;100.00;101423.75;4165550;28;20250;-67
2022/11/12 10:18:53;;;;;;;59.03;32.10;;;;;;;7.97;100.00;101418.91;4157716;28;21203;-70
2022/11/12 10:21:44;;;;;;;63.37;33.03;;;;;;;7.91;100.00;101416.66;4158685;29;20244;-69
2022/11/12 10:24:11;;;;;;;61.70;33.67;;;;;;;7.87;100.00;101417.84;4168464;28;24140;-68
2022/11/12 10:26:38;;;;;;;62.23;33.73;;;;;;;7.83;100.00;101424.28;4146493;28;20244;-69
2022/11/12 10:29:27;;;;;;;62.80;33.60;;;;;;;7.93;100.00;101433.31;4155404;28;20979;-72
2022/11/12 10:31:55;;;;;;;61.03;32.00;;;;;;;7.98;100.00;101441.81;4181712;28;20405;-71
2022/11/12 10:34:23;;;;;;;56.43;31.47;;;;;;;8.10;100.00;101436.63;4157764;28;21793;-69
2022/11/12 10:36:58;;;;;;;61.50;30.93;;;;;;;8.08;100.00;101436.75;4202402;28;20346;-69
2022/11/12 10:39:35;;;;;;;54.30;30.33;;;;;;;8.02;100.00;101437.97;4186342;28;20554;-70
2022/11/12 10:42:08;;;;;;;51.90;29.03;;;;;;;8.13;100.00;101439.06;4144519;28;21151;-69
2022/11/12 10:44:35;;;;;;;50.10;29.00;;;;;;;8.06;100.00;101438.63;4159726;28;20388;-67
2022/11/12 10:47:19;;;;;;;52.90;29.17;;;;;;;8.03;100.00;101433.56;4150782;28;20239;-69
2022/11/12 10:50:18;;;;;;;56.43;30.23;;;;;;;7.88;100.00;101427.47;4162176;29;20236;-69
2022/11/12 10:52:56;;;;;;;47.03;27.83;;;;;;;7.94;100.00;101435.03;4170999;28;20238;-70
2022/11/12 10:55:31;;;;;;;50.20;29.20;;;;;;;8.03;100.00;101437.06;4158759;28;20310;-70
2022/11/12 10:58:08;;;;;;;48.90;26.87;;;;;;;8.01;100.00;101433.66;4167530;28;20715;-70
2022/11/12 11:00:36;;;;;;;49.03;26.87;;;;;;;8.01;100.00;101431.00;4163147;28;20250;-69
2022/11/12 11:03:15;;;;;;;43.70;25.73;;;;;;;8.07;100.00;101434.19;4164631;28;20268;-72
2022/11/12 11:05:58;;;;;;;45.53;27.77;;;;;;;8.11;100.00;101435.69;4161620;28;20236;-71
2022/11/12 11:08:31;;;;;;;51.47;28.33;;;;;;;8.14;100.00;101435.47;4161540;28;20249;-70
2022/11/12 11:11:29;;;;;;;50.17;29.70;;;;;;;7.98;100.00;101436.53;4171009;28;20245;-68
2022/11/12 11:14:23;;;;;;;45.27;27.27;;;;;;;8.10;100.00;101442.78;4175243;28;25793;-70
2022/11/12 11:16:57;;;;;;;50.43;27.23;;;;;;;8.19;100.00;101442.16;4180794;28;20245;-70
2022/11/12 11:19:32;;;;;;;47.30;27.57;;;;;;;8.08;100.00;101433.22;4161630;29;20236;-72
2022/11/12 11:22:14;;;;;;;46.30;26.13;;;;;;;8.09;100.00;101433.13;4155296;28;20319;-69
2022/11/12 11:24:50;;;;;;;49.23;26.87;;;;;;;8.22;100.00;101430.50;4160647;28;22325;-72
2022/11/12 11:27:34;;;;;;;47.47;26.00;;;;;;;8.24;100.00;101426.78;4163206;28;23057;-70
2022/11/12 11:30:11;;;;;;;47.80;27.17;;;;;;;8.26;100.00;101429.31;4154502;28;20241;-69
2022/11/12 11:32:59;;;;;;;46.97;25.77;;;;;;;8.31;100.00;101437.81;4166877;28;20854;-69
2022/11/12 11:35:35;;;;;;;51.60;27.07;;;;;;;8.22;100.00;101428.69;4168385;28;20237;-71
2022/11/12 11:38:21;;;;;;;42.07;23.53;;;;;;;8.12;100.00;101432.91;4153402;28;20460;-70
2022/11/12 11:40:58;;;;;;;47.00;23.87;;;;;;;8.20;100.00;101435.06;4173782;29;20308;-67
2022/11/12 11:43:36;;;;;;;41.97;22.50;;;;;;;8.22;100.00;101436.66;4171261;28;20246;-68
2022/11/12 11:46:10;;;;;;;40.07;21.70;;;;;;;8.22;100.00;101443.75;4155860;28;25105;-70
2022/11/12 11:48:42;;;;;;;40.43;20.20;;;;;;;8.13;100.00;101444.38;4165688;28;22568;-72
2022/11/12 11:51:43;;;;;;;34.87;20.10;;;;;;;8.12;100.00;101445.31;4170623;28;20737;-68